sensor_id;sensor_type;location;lat;lon;timestamp;P1;durP1;ratioP1;P2;durP2;ratioP2
63536;SDS011;49686;51.880;5.632;2023-08-06T00:00:50;8.02;;;4.82;;
63536;SDS011;49686;51.880;5.632;2023-08-06T00:03:17;8.48;;;4.20;;
63536;SDS011;49686;51.880;5.632;2023-08-06T00:05:44;6.97;;;5.18;;
63536;SDS011;49686;51.880;5.632;2023-08-06T00:08:11;6.10;;;4.25;;
63536;SDS011;49686;51.880;5.632;2023-08-06T00:10:39;7.00;;;5.13;;
63536;SDS011;49686;51.880;5.632;2023-08-06T00:13:05;5.45;;;4.10;;
63536;SDS011;49686;51.880;5.632;2023-08-06T00:15:34;8.50;;;4.00;;
63536;SDS011;49686;51.880;5.632;2023-08-06T00:18:01;4.72;;;4.22;;
63536;SDS011;49686;51.880;5.632;2023-08-06T00:20:33;4.80;;;3.38;;
63536;SDS011;49686;51.880;5.632;2023-08-06T00:23:04;5.97;;;4.63;;
63536;SDS011;49686;51.880;5.632;2023-08-06T00:25:31;5.72;;;4.07;;
63536;SDS011;49686;51.880;5.632;2023-08-06T00:27:59;6.53;;;4.47;;
63536;SDS011;49686;51.880;5.632;2023-08-06T00:30:26;5.43;;;4.07;;
63536;SDS011;49686;51.880;5.632;2023-08-06T00:32:54;5.00;;;4.03;;
63536;SDS011;49686;51.880;5.632;2023-08-06T00:35:21;5.35;;;3.97;;
63536;SDS011;49686;51.880;5.632;2023-08-06T00:37:49;8.20;;;4.18;;
63536;SDS011;49686;51.880;5.632;2023-08-06T00:40:16;5.80;;;4.15;;
63536;SDS011;49686;51.880;5.632;2023-08-06T00:42:46;5.88;;;4.13;;
63536;SDS011;49686;51.880;5.632;2023-08-06T00:45:13;6.82;;;3.92;;
63536;SDS011;49686;51.880;5.632;2023-08-06T00:47:40;6.75;;;3.65;;
63536;SDS011;49686;51.880;5.632;2023-08-06T00:50:09;5.47;;;4.32;;
63536;SDS011;49686;51.880;5.632;2023-08-06T00:52:36;6.82;;;3.83;;
63536;SDS011;49686;51.880;5.632;2023-08-06T00:55:03;4.60;;;3.50;;
63536;SDS011;49686;51.880;5.632;2023-08-06T00:57:30;4.45;;;3.75;;
63536;SDS011;49686;51.880;5.632;2023-08-06T00:59:57;4.75;;;3.28;;
63536;SDS011;49686;51.880;5.632;2023-08-06T01:02:24;5.40;;;3.75;;
63536;SDS011;49686;51.880;5.632;2023-08-06T01:04:51;6.03;;;3.95;;
63536;SDS011;49686;51.880;5.632;2023-08-06T01:07:21;5.85;;;3.63;;
63536;SDS011;49686;51.880;5.632;2023-08-06T01:10:02;6.35;;;3.80;;
63536;SDS011;49686;51.880;5.632;2023-08-06T01:12:42;4.43;;;3.60;;
63536;SDS011;49686;51.880;5.632;2023-08-06T01:15:18;4.43;;;3.50;;
63536;SDS011;49686;51.880;5.632;2023-08-06T01:17:48;5.13;;;3.47;;
63536;SDS011;49686;51.880;5.632;2023-08-06T01:20:15;5.32;;;3.60;;
63536;SDS011;49686;51.880;5.632;2023-08-06T01:22:43;6.05;;;4.07;;
63536;SDS011;49686;51.880;5.632;2023-08-06T01:25:10;4.05;;;3.60;;
63536;SDS011;49686;51.880;5.632;2023-08-06T01:27:43;5.57;;;4.43;;
63536;SDS011;49686;51.880;5.632;2023-08-06T01:30:15;6.45;;;4.40;;
63536;SDS011;49686;51.880;5.632;2023-08-06T01:32:44;5.55;;;3.88;;
63536;SDS011;49686;51.880;5.632;2023-08-06T01:35:15;5.32;;;3.88;;
63536;SDS011;49686;51.880;5.632;2023-08-06T01:37:45;5.93;;;4.10;;
63536;SDS011;49686;51.880;5.632;2023-08-06T01:40:13;6.88;;;4.20;;
63536;SDS011;49686;51.880;5.632;2023-08-06T01:42:40;6.65;;;5.05;;
63536;SDS011;49686;51.880;5.632;2023-08-06T01:45:07;7.93;;;4.55;;
63536;SDS011;49686;51.880;5.632;2023-08-06T01:47:35;5.33;;;4.70;;
63536;SDS011;49686;51.880;5.632;2023-08-06T01:50:02;7.75;;;4.35;;
63536;SDS011;49686;51.880;5.632;2023-08-06T01:52:29;7.95;;;4.97;;
63536;SDS011;49686;51.880;5.632;2023-08-06T01:54:57;7.43;;;5.57;;
63536;SDS011;49686;51.880;5.632;2023-08-06T01:57:24;6.90;;;4.88;;
63536;SDS011;49686;51.880;5.632;2023-08-06T01:59:51;6.40;;;4.82;;
63536;SDS011;49686;51.880;5.632;2023-08-06T02:02:18;11.65;;;5.45;;
63536;SDS011;49686;51.880;5.632;2023-08-06T02:04:45;7.38;;;5.32;;
63536;SDS011;49686;51.880;5.632;2023-08-06T02:07:12;7.85;;;5.47;;
63536;SDS011;49686;51.880;5.632;2023-08-06T02:09:39;8.15;;;5.40;;
63536;SDS011;49686;51.880;5.632;2023-08-06T02:12:07;8.07;;;5.57;;
63536;SDS011;49686;51.880;5.632;2023-08-06T02:14:34;8.52;;;5.68;;
63536;SDS011;49686;51.880;5.632;2023-08-06T02:17:01;7.70;;;5.85;;
63536;SDS011;49686;51.880;5.632;2023-08-06T02:19:28;8.82;;;5.97;;
63536;SDS011;49686;51.880;5.632;2023-08-06T02:21:55;10.90;;;6.90;;
63536;SDS011;49686;51.880;5.632;2023-08-06T02:24:22;8.95;;;6.75;;
63536;SDS011;49686;51.880;5.632;2023-08-06T02:26:49;11.40;;;7.00;;
63536;SDS011;49686;51.880;5.632;2023-08-06T02:29:17;9.95;;;7.07;;
63536;SDS011;49686;51.880;5.632;2023-08-06T02:31:44;9.32;;;7.05;;
63536;SDS011;49686;51.880;5.632;2023-08-06T02:34:11;11.63;;;7.45;;
63536;SDS011;49686;51.880;5.632;2023-08-06T02:36:38;11.82;;;7.93;;
63536;SDS011;49686;51.880;5.632;2023-08-06T02:39:05;12.68;;;8.60;;
63536;SDS011;49686;51.880;5.632;2023-08-06T02:41:31;14.65;;;8.80;;
63536;SDS011;49686;51.880;5.632;2023-08-06T02:43:58;12.20;;;8.52;;
63536;SDS011;49686;51.880;5.632;2023-08-06T02:46:26;12.68;;;8.38;;
63536;SDS011;49686;51.880;5.632;2023-08-06T02:48:53;15.90;;;8.77;;
63536;SDS011;49686;51.880;5.632;2023-08-06T02:51:20;14.18;;;9.27;;
63536;SDS011;49686;51.880;5.632;2023-08-06T02:53:47;14.40;;;9.98;;
63536;SDS011;49686;51.880;5.632;2023-08-06T02:56:14;17.45;;;10.98;;
63536;SDS011;49686;51.880;5.632;2023-08-06T02:58:41;17.30;;;11.15;;
63536;SDS011;49686;51.880;5.632;2023-08-06T03:01:08;16.52;;;11.05;;
63536;SDS011;49686;51.880;5.632;2023-08-06T03:03:36;20.13;;;12.32;;
63536;SDS011;49686;51.880;5.632;2023-08-06T03:06:03;17.98;;;11.65;;
63536;SDS011;49686;51.880;5.632;2023-08-06T03:08:29;18.08;;;11.85;;
63536;SDS011;49686;51.880;5.632;2023-08-06T03:10:56;17.70;;;11.77;;
63536;SDS011;49686;51.880;5.632;2023-08-06T03:13:23;16.75;;;11.75;;
63536;SDS011;49686;51.880;5.632;2023-08-06T03:15:53;18.17;;;12.57;;
63536;SDS011;49686;51.880;5.632;2023-08-06T03:18:20;19.98;;;12.23;;
63536;SDS011;49686;51.880;5.632;2023-08-06T03:20:49;16.60;;;11.57;;
63536;SDS011;49686;51.880;5.632;2023-08-06T03:23:15;17.08;;;11.50;;
63536;SDS011;49686;51.880;5.632;2023-08-06T03:25:42;18.77;;;11.98;;
63536;SDS011;49686;51.880;5.632;2023-08-06T03:28:09;16.77;;;11.73;;
63536;SDS011;49686;51.880;5.632;2023-08-06T03:30:36;20.52;;;11.95;;
63536;SDS011;49686;51.880;5.632;2023-08-06T03:33:03;18.88;;;12.23;;
63536;SDS011;49686;51.880;5.632;2023-08-06T03:35:30;18.63;;;11.95;;
63536;SDS011;49686;51.880;5.632;2023-08-06T03:37:58;16.95;;;12.05;;
63536;SDS011;49686;51.880;5.632;2023-08-06T03:40:25;19.83;;;12.38;;
63536;SDS011;49686;51.880;5.632;2023-08-06T03:42:52;17.33;;;12.60;;
63536;SDS011;49686;51.880;5.632;2023-08-06T03:45:19;17.70;;;12.32;;
63536;SDS011;49686;51.880;5.632;2023-08-06T03:47:45;18.05;;;13.15;;
63536;SDS011;49686;51.880;5.632;2023-08-06T03:50:12;18.63;;;13.20;;
63536;SDS011;49686;51.880;5.632;2023-08-06T03:52:39;20.85;;;13.90;;
63536;SDS011;49686;51.880;5.632;2023-08-06T03:55:08;22.48;;;13.57;;
63536;SDS011;49686;51.880;5.632;2023-08-06T03:57:34;20.60;;;13.00;;
63536;SDS011;49686;51.880;5.632;2023-08-06T04:00:01;22.52;;;13.82;;
63536;SDS011;49686;51.880;5.632;2023-08-06T04:02:29;18.92;;;13.82;;
63536;SDS011;49686;51.880;5.632;2023-08-06T04:04:55;20.90;;;13.65;;
63536;SDS011;49686;51.880;5.632;2023-08-06T04:07:22;19.63;;;13.63;;
63536;SDS011;49686;51.880;5.632;2023-08-06T04:09:53;22.55;;;13.90;;
63536;SDS011;49686;51.880;5.632;2023-08-06T04:12:22;19.92;;;13.77;;
63536;SDS011;49686;51.880;5.632;2023-08-06T04:14:49;21.45;;;12.82;;
63536;SDS011;49686;51.880;5.632;2023-08-06T04:17:16;19.05;;;13.30;;
63536;SDS011;49686;51.880;5.632;2023-08-06T04:19:43;21.30;;;14.18;;
63536;SDS011;49686;51.880;5.632;2023-08-06T04:22:10;22.27;;;13.85;;
63536;SDS011;49686;51.880;5.632;2023-08-06T04:24:37;22.63;;;14.85;;
63536;SDS011;49686;51.880;5.632;2023-08-06T04:27:04;23.42;;;14.60;;
63536;SDS011;49686;51.880;5.632;2023-08-06T04:29:32;21.92;;;14.80;;
63536;SDS011;49686;51.880;5.632;2023-08-06T04:31:59;23.27;;;14.88;;
63536;SDS011;49686;51.880;5.632;2023-08-06T04:34:26;21.17;;;14.43;;
63536;SDS011;49686;51.880;5.632;2023-08-06T04:36:53;23.85;;;14.95;;
63536;SDS011;49686;51.880;5.632;2023-08-06T04:39:19;20.73;;;14.57;;
63536;SDS011;49686;51.880;5.632;2023-08-06T04:41:46;24.73;;;16.25;;
63536;SDS011;49686;51.880;5.632;2023-08-06T04:44:13;26.95;;;16.50;;
63536;SDS011;49686;51.880;5.632;2023-08-06T04:46:41;27.00;;;17.33;;
63536;SDS011;49686;51.880;5.632;2023-08-06T04:49:08;23.73;;;16.33;;
63536;SDS011;49686;51.880;5.632;2023-08-06T04:51:35;25.20;;;16.75;;
63536;SDS011;49686;51.880;5.632;2023-08-06T04:54:02;27.95;;;17.25;;
63536;SDS011;49686;51.880;5.632;2023-08-06T04:56:29;25.83;;;17.65;;
63536;SDS011;49686;51.880;5.632;2023-08-06T04:58:55;24.52;;;15.82;;
63536;SDS011;49686;51.880;5.632;2023-08-06T05:01:23;28.10;;;18.15;;
63536;SDS011;49686;51.880;5.632;2023-08-06T05:03:51;24.15;;;16.25;;
63536;SDS011;49686;51.880;5.632;2023-08-06T05:06:18;26.88;;;17.02;;
63536;SDS011;49686;51.880;5.632;2023-08-06T05:08:45;24.02;;;15.90;;
63536;SDS011;49686;51.880;5.632;2023-08-06T05:11:11;24.92;;;16.35;;
63536;SDS011;49686;51.880;5.632;2023-08-06T05:13:38;24.75;;;15.50;;
63536;SDS011;49686;51.880;5.632;2023-08-06T05:16:05;24.45;;;15.80;;
63536;SDS011;49686;51.880;5.632;2023-08-06T05:18:32;24.00;;;15.50;;
63536;SDS011;49686;51.880;5.632;2023-08-06T05:21:00;23.38;;;15.68;;
63536;SDS011;49686;51.880;5.632;2023-08-06T05:23:27;29.27;;;16.65;;
63536;SDS011;49686;51.880;5.632;2023-08-06T05:25:54;23.58;;;17.02;;
63536;SDS011;49686;51.880;5.632;2023-08-06T05:28:20;22.75;;;16.50;;
63536;SDS011;49686;51.880;5.632;2023-08-06T05:30:47;23.83;;;16.10;;
63536;SDS011;49686;51.880;5.632;2023-08-06T05:33:14;24.10;;;17.08;;
63536;SDS011;49686;51.880;5.632;2023-08-06T05:35:41;25.42;;;16.25;;
63536;SDS011;49686;51.880;5.632;2023-08-06T05:38:09;22.25;;;15.85;;
63536;SDS011;49686;51.880;5.632;2023-08-06T05:40:36;23.58;;;16.30;;
63536;SDS011;49686;51.880;5.632;2023-08-06T05:43:03;24.20;;;16.48;;
63536;SDS011;49686;51.880;5.632;2023-08-06T05:45:30;22.48;;;15.50;;
63536;SDS011;49686;51.880;5.632;2023-08-06T05:47:56;19.98;;;14.65;;
63536;SDS011;49686;51.880;5.632;2023-08-06T05:50:23;21.80;;;14.57;;
63536;SDS011;49686;51.880;5.632;2023-08-06T05:52:50;20.90;;;14.82;;
63536;SDS011;49686;51.880;5.632;2023-08-06T05:55:18;19.70;;;13.95;;
63536;SDS011;49686;51.880;5.632;2023-08-06T05:57:45;19.50;;;14.85;;
63536;SDS011;49686;51.880;5.632;2023-08-06T06:00:12;19.83;;;14.90;;
63536;SDS011;49686;51.880;5.632;2023-08-06T06:02:39;17.70;;;12.27;;
63536;SDS011;49686;51.880;5.632;2023-08-06T06:05:07;19.05;;;12.73;;
63536;SDS011;49686;51.880;5.632;2023-08-06T06:07:34;18.75;;;13.63;;
63536;SDS011;49686;51.880;5.632;2023-08-06T06:10:01;16.58;;;12.77;;
63536;SDS011;49686;51.880;5.632;2023-08-06T06:12:29;19.13;;;13.35;;
63536;SDS011;49686;51.880;5.632;2023-08-06T06:14:56;17.48;;;13.10;;
63536;SDS011;49686;51.880;5.632;2023-08-06T06:17:23;17.05;;;13.50;;
63536;SDS011;49686;51.880;5.632;2023-08-06T06:19:50;18.30;;;13.75;;
63536;SDS011;49686;51.880;5.632;2023-08-06T06:22:17;21.27;;;14.52;;
63536;SDS011;49686;51.880;5.632;2023-08-06T06:24:44;21.38;;;15.43;;
63536;SDS011;49686;51.880;5.632;2023-08-06T06:27:11;20.15;;;14.75;;
63536;SDS011;49686;51.880;5.632;2023-08-06T06:29:39;16.92;;;13.15;;
63536;SDS011;49686;51.880;5.632;2023-08-06T06:32:06;17.42;;;13.70;;
63536;SDS011;49686;51.880;5.632;2023-08-06T06:34:33;17.58;;;13.63;;
63536;SDS011;49686;51.880;5.632;2023-08-06T06:37:01;17.20;;;13.68;;
63536;SDS011;49686;51.880;5.632;2023-08-06T06:39:28;17.52;;;12.90;;
63536;SDS011;49686;51.880;5.632;2023-08-06T06:41:55;14.65;;;12.40;;
63536;SDS011;49686;51.880;5.632;2023-08-06T06:44:21;16.77;;;13.45;;
63536;SDS011;49686;51.880;5.632;2023-08-06T06:46:50;17.55;;;13.60;;
63536;SDS011;49686;51.880;5.632;2023-08-06T06:49:19;17.95;;;14.15;;
63536;SDS011;49686;51.880;5.632;2023-08-06T06:51:46;21.55;;;15.18;;
63536;SDS011;49686;51.880;5.632;2023-08-06T06:54:13;22.80;;;15.75;;
63536;SDS011;49686;51.880;5.632;2023-08-06T06:56:40;20.38;;;15.60;;
63536;SDS011;49686;51.880;5.632;2023-08-06T06:59:07;24.50;;;17.15;;
63536;SDS011;49686;51.880;5.632;2023-08-06T07:01:34;21.40;;;16.00;;
63536;SDS011;49686;51.880;5.632;2023-08-06T07:04:03;22.15;;;16.40;;
63536;SDS011;49686;51.880;5.632;2023-08-06T07:06:30;22.30;;;16.88;;
63536;SDS011;49686;51.880;5.632;2023-08-06T07:09:00;21.73;;;16.77;;
63536;SDS011;49686;51.880;5.632;2023-08-06T07:11:27;22.55;;;17.42;;
63536;SDS011;49686;51.880;5.632;2023-08-06T07:13:55;21.30;;;16.63;;
63536;SDS011;49686;51.880;5.632;2023-08-06T07:16:23;19.58;;;15.65;;
63536;SDS011;49686;51.880;5.632;2023-08-06T07:18:51;21.88;;;16.90;;
63536;SDS011;49686;51.880;5.632;2023-08-06T07:21:19;22.77;;;16.55;;
63536;SDS011;49686;51.880;5.632;2023-08-06T07:23:46;23.90;;;17.77;;
63536;SDS011;49686;51.880;5.632;2023-08-06T07:26:13;21.75;;;17.00;;
63536;SDS011;49686;51.880;5.632;2023-08-06T07:28:40;25.65;;;18.08;;
63536;SDS011;49686;51.880;5.632;2023-08-06T07:31:07;27.95;;;18.00;;
63536;SDS011;49686;51.880;5.632;2023-08-06T07:33:34;25.17;;;18.08;;
63536;SDS011;49686;51.880;5.632;2023-08-06T07:36:07;24.00;;;17.40;;
63536;SDS011;49686;51.880;5.632;2023-08-06T07:38:35;25.00;;;17.70;;
63536;SDS011;49686;51.880;5.632;2023-08-06T07:41:03;24.55;;;17.70;;
63536;SDS011;49686;51.880;5.632;2023-08-06T07:43:29;24.88;;;17.55;;
63536;SDS011;49686;51.880;5.632;2023-08-06T07:45:57;25.20;;;17.80;;
63536;SDS011;49686;51.880;5.632;2023-08-06T07:48:24;25.20;;;17.77;;
63536;SDS011;49686;51.880;5.632;2023-08-06T07:50:51;26.88;;;17.98;;
63536;SDS011;49686;51.880;5.632;2023-08-06T07:53:18;29.85;;;18.60;;
63536;SDS011;49686;51.880;5.632;2023-08-06T07:55:48;25.85;;;18.23;;
63536;SDS011;49686;51.880;5.632;2023-08-06T07:58:16;25.38;;;16.88;;
63536;SDS011;49686;51.880;5.632;2023-08-06T08:00:43;21.88;;;16.23;;
63536;SDS011;49686;51.880;5.632;2023-08-06T08:03:09;23.25;;;14.95;;
63536;SDS011;49686;51.880;5.632;2023-08-06T08:05:36;23.00;;;15.43;;
63536;SDS011;49686;51.880;5.632;2023-08-06T08:08:03;22.90;;;16.35;;
63536;SDS011;49686;51.880;5.632;2023-08-06T08:10:30;27.33;;;16.45;;
63536;SDS011;49686;51.880;5.632;2023-08-06T08:12:59;23.88;;;17.23;;
63536;SDS011;49686;51.880;5.632;2023-08-06T08:15:28;22.83;;;16.92;;
63536;SDS011;49686;51.880;5.632;2023-08-06T08:17:58;20.30;;;15.07;;
63536;SDS011;49686;51.880;5.632;2023-08-06T08:20:25;15.90;;;11.27;;
63536;SDS011;49686;51.880;5.632;2023-08-06T08:22:53;12.40;;;9.90;;
63536;SDS011;49686;51.880;5.632;2023-08-06T08:25:19;6.95;;;5.22;;
63536;SDS011;49686;51.880;5.632;2023-08-06T08:27:46;2.55;;;2.20;;
63536;SDS011;49686;51.880;5.632;2023-08-06T08:30:14;1.58;;;1.20;;
63536;SDS011;49686;51.880;5.632;2023-08-06T08:32:41;1.33;;;1.05;;
63536;SDS011;49686;51.880;5.632;2023-08-06T08:35:08;1.63;;;1.52;;
63536;SDS011;49686;51.880;5.632;2023-08-06T08:37:35;1.85;;;1.30;;
63536;SDS011;49686;51.880;5.632;2023-08-06T08:40:02;1.98;;;1.77;;
63536;SDS011;49686;51.880;5.632;2023-08-06T08:42:30;2.00;;;1.65;;
63536;SDS011;49686;51.880;5.632;2023-08-06T08:44:57;3.40;;;1.70;;
63536;SDS011;49686;51.880;5.632;2023-08-06T08:47:28;3.22;;;1.90;;
63536;SDS011;49686;51.880;5.632;2023-08-06T08:49:55;1.60;;;1.50;;
63536;SDS011;49686;51.880;5.632;2023-08-06T08:52:25;2.90;;;2.45;;
63536;SDS011;49686;51.880;5.632;2023-08-06T08:54:56;2.17;;;1.98;;
63536;SDS011;49686;51.880;5.632;2023-08-06T08:57:29;2.10;;;1.90;;
63536;SDS011;49686;51.880;5.632;2023-08-06T08:59:56;2.13;;;1.90;;
63536;SDS011;49686;51.880;5.632;2023-08-06T09:02:23;2.13;;;1.92;;
63536;SDS011;49686;51.880;5.632;2023-08-06T09:04:54;2.13;;;1.88;;
63536;SDS011;49686;51.880;5.632;2023-08-06T09:07:23;2.50;;;2.25;;
63536;SDS011;49686;51.880;5.632;2023-08-06T09:09:50;2.45;;;1.98;;
63536;SDS011;49686;51.880;5.632;2023-08-06T09:12:19;2.67;;;2.40;;
63536;SDS011;49686;51.880;5.632;2023-08-06T09:14:47;3.88;;;2.15;;
63536;SDS011;49686;51.880;5.632;2023-08-06T09:17:14;2.35;;;2.10;;
63536;SDS011;49686;51.880;5.632;2023-08-06T09:19:42;3.20;;;2.85;;
63536;SDS011;49686;51.880;5.632;2023-08-06T09:22:10;3.53;;;2.50;;
63536;SDS011;49686;51.880;5.632;2023-08-06T09:24:38;2.95;;;2.75;;
63536;SDS011;49686;51.880;5.632;2023-08-06T09:27:05;3.22;;;2.70;;
63536;SDS011;49686;51.880;5.632;2023-08-06T09:29:36;2.83;;;2.58;;
63536;SDS011;49686;51.880;5.632;2023-08-06T09:32:09;3.13;;;2.80;;
63536;SDS011;49686;51.880;5.632;2023-08-06T09:34:41;3.55;;;3.00;;
63536;SDS011;49686;51.880;5.632;2023-08-06T09:37:14;3.83;;;3.10;;
63536;SDS011;49686;51.880;5.632;2023-08-06T09:39:41;4.78;;;4.03;;
63536;SDS011;49686;51.880;5.632;2023-08-06T09:42:08;4.50;;;3.28;;
63536;SDS011;49686;51.880;5.632;2023-08-06T09:44:46;5.28;;;4.00;;
63536;SDS011;49686;51.880;5.632;2023-08-06T09:47:16;5.78;;;3.50;;
63536;SDS011;49686;51.880;5.632;2023-08-06T09:49:44;5.15;;;3.88;;
63536;SDS011;49686;51.880;5.632;2023-08-06T09:52:11;7.82;;;3.28;;
63536;SDS011;49686;51.880;5.632;2023-08-06T09:54:42;7.72;;;4.80;;
63536;SDS011;49686;51.880;5.632;2023-08-06T09:57:13;5.70;;;4.72;;
63536;SDS011;49686;51.880;5.632;2023-08-06T09:59:41;8.15;;;4.13;;
63536;SDS011;49686;51.880;5.632;2023-08-06T10:02:11;5.70;;;4.07;;
63536;SDS011;49686;51.880;5.632;2023-08-06T10:04:39;7.00;;;4.68;;
63536;SDS011;49686;51.880;5.632;2023-08-06T10:07:08;11.25;;;5.35;;
63536;SDS011;49686;51.880;5.632;2023-08-06T10:09:35;9.23;;;5.20;;
63536;SDS011;49686;51.880;5.632;2023-08-06T10:12:02;8.98;;;5.53;;
63536;SDS011;49686;51.880;5.632;2023-08-06T10:14:30;6.72;;;4.70;;
63536;SDS011;49686;51.880;5.632;2023-08-06T10:16:59;8.85;;;5.18;;
63536;SDS011;49686;51.880;5.632;2023-08-06T10:19:27;8.90;;;5.38;;
63536;SDS011;49686;51.880;5.632;2023-08-06T10:22:12;7.20;;;5.55;;
63536;SDS011;49686;51.880;5.632;2023-08-06T10:24:50;6.10;;;5.25;;
63536;SDS011;49686;51.880;5.632;2023-08-06T10:27:21;6.40;;;4.57;;
63536;SDS011;49686;51.880;5.632;2023-08-06T10:29:48;5.22;;;4.13;;
63536;SDS011;49686;51.880;5.632;2023-08-06T10:32:20;6.10;;;4.90;;
63536;SDS011;49686;51.880;5.632;2023-08-06T10:34:54;7.43;;;4.50;;
63536;SDS011;49686;51.880;5.632;2023-08-06T10:37:23;7.45;;;4.68;;
63536;SDS011;49686;51.880;5.632;2023-08-06T10:39:50;5.45;;;3.75;;
63536;SDS011;49686;51.880;5.632;2023-08-06T10:42:21;6.38;;;4.50;;
63536;SDS011;49686;51.880;5.632;2023-08-06T10:47:37;8.75;;;4.55;;
63536;SDS011;49686;51.880;5.632;2023-08-06T10:50:10;6.25;;;4.45;;
63536;SDS011;49686;51.880;5.632;2023-08-06T10:52:40;5.75;;;4.03;;
63536;SDS011;49686;51.880;5.632;2023-08-06T10:55:07;7.70;;;5.28;;
63536;SDS011;49686;51.880;5.632;2023-08-06T10:57:34;7.68;;;4.72;;
63536;SDS011;49686;51.880;5.632;2023-08-06T11:00:01;7.15;;;5.60;;
63536;SDS011;49686;51.880;5.632;2023-08-06T11:02:42;8.02;;;4.80;;
63536;SDS011;49686;51.880;5.632;2023-08-06T11:05:09;10.95;;;6.28;;
63536;SDS011;49686;51.880;5.632;2023-08-06T11:07:37;7.85;;;4.57;;
63536;SDS011;49686;51.880;5.632;2023-08-06T11:10:07;6.25;;;4.45;;
63536;SDS011;49686;51.880;5.632;2023-08-06T11:12:35;8.35;;;4.30;;
63536;SDS011;49686;51.880;5.632;2023-08-06T11:15:03;7.68;;;3.53;;
63536;SDS011;49686;51.880;5.632;2023-08-06T11:17:31;6.20;;;4.17;;
63536;SDS011;49686;51.880;5.632;2023-08-06T11:19:59;6.85;;;4.20;;
63536;SDS011;49686;51.880;5.632;2023-08-06T11:22:27;7.15;;;4.38;;
63536;SDS011;49686;51.880;5.632;2023-08-06T11:24:54;5.60;;;3.95;;
63536;SDS011;49686;51.880;5.632;2023-08-06T11:27:22;7.53;;;4.07;;
63536;SDS011;49686;51.880;5.632;2023-08-06T11:29:52;7.10;;;3.88;;
63536;SDS011;49686;51.880;5.632;2023-08-06T11:32:19;5.18;;;3.60;;
63536;SDS011;49686;51.880;5.632;2023-08-06T11:34:46;8.05;;;3.63;;
63536;SDS011;49686;51.880;5.632;2023-08-06T11:37:12;5.60;;;3.85;;
63536;SDS011;49686;51.880;5.632;2023-08-06T11:39:41;6.65;;;3.45;;
63536;SDS011;49686;51.880;5.632;2023-08-06T11:42:12;8.35;;;3.75;;
63536;SDS011;49686;51.880;5.632;2023-08-06T11:44:41;5.07;;;3.15;;
63536;SDS011;49686;51.880;5.632;2023-08-06T11:47:11;5.60;;;2.90;;
63536;SDS011;49686;51.880;5.632;2023-08-06T11:49:40;7.70;;;3.45;;
63536;SDS011;49686;51.880;5.632;2023-08-06T11:52:14;6.68;;;3.42;;
63536;SDS011;49686;51.880;5.632;2023-08-06T11:54:42;3.75;;;2.47;;
63536;SDS011;49686;51.880;5.632;2023-08-06T11:57:09;5.05;;;3.15;;
63536;SDS011;49686;51.880;5.632;2023-08-06T11:59:37;4.97;;;3.33;;
63536;SDS011;49686;51.880;5.632;2023-08-06T12:02:07;5.35;;;3.33;;
63536;SDS011;49686;51.880;5.632;2023-08-06T12:04:56;5.75;;;3.08;;
63536;SDS011;49686;51.880;5.632;2023-08-06T12:07:28;7.28;;;3.30;;
63536;SDS011;49686;51.880;5.632;2023-08-06T12:09:55;5.32;;;2.90;;
63536;SDS011;49686;51.880;5.632;2023-08-06T12:12:22;7.15;;;4.15;;
63536;SDS011;49686;51.880;5.632;2023-08-06T12:14:49;4.90;;;3.10;;
63536;SDS011;49686;51.880;5.632;2023-08-06T12:17:17;7.97;;;2.85;;
63536;SDS011;49686;51.880;5.632;2023-08-06T12:19:44;4.65;;;2.97;;
63536;SDS011;49686;51.880;5.632;2023-08-06T12:22:11;4.15;;;2.80;;
63536;SDS011;49686;51.880;5.632;2023-08-06T12:24:38;4.25;;;2.90;;
63536;SDS011;49686;51.880;5.632;2023-08-06T12:27:05;2.90;;;2.40;;
63536;SDS011;49686;51.880;5.632;2023-08-06T12:29:32;3.42;;;2.65;;
63536;SDS011;49686;51.880;5.632;2023-08-06T12:31:59;5.18;;;3.08;;
63536;SDS011;49686;51.880;5.632;2023-08-06T12:34:27;4.97;;;2.60;;
63536;SDS011;49686;51.880;5.632;2023-08-06T12:37:02;4.35;;;2.50;;
63536;SDS011;49686;51.880;5.632;2023-08-06T12:39:29;4.95;;;2.53;;
63536;SDS011;49686;51.880;5.632;2023-08-06T12:41:55;4.15;;;2.47;;
63536;SDS011;49686;51.880;5.632;2023-08-06T12:44:29;4.38;;;2.20;;
63536;SDS011;49686;51.880;5.632;2023-08-06T12:46:56;6.30;;;2.15;;
63536;SDS011;49686;51.880;5.632;2023-08-06T12:49:24;3.88;;;2.10;;
63536;SDS011;49686;51.880;5.632;2023-08-06T12:51:53;3.92;;;2.83;;
63536;SDS011;49686;51.880;5.632;2023-08-06T12:54:21;4.68;;;2.47;;
63536;SDS011;49686;51.880;5.632;2023-08-06T12:56:48;3.25;;;2.17;;
63536;SDS011;49686;51.880;5.632;2023-08-06T12:59:15;3.25;;;1.90;;
63536;SDS011;49686;51.880;5.632;2023-08-06T13:01:43;2.60;;;1.73;;
63536;SDS011;49686;51.880;5.632;2023-08-06T13:04:10;5.10;;;2.10;;
63536;SDS011;49686;51.880;5.632;2023-08-06T13:06:47;3.08;;;1.95;;
63536;SDS011;49686;51.880;5.632;2023-08-06T13:09:16;4.82;;;2.00;;
63536;SDS011;49686;51.880;5.632;2023-08-06T13:11:43;1.60;;;1.42;;
63536;SDS011;49686;51.880;5.632;2023-08-06T13:14:10;3.60;;;1.67;;
63536;SDS011;49686;51.880;5.632;2023-08-06T13:16:38;3.97;;;1.90;;
63536;SDS011;49686;51.880;5.632;2023-08-06T13:19:07;2.47;;;1.60;;
63536;SDS011;49686;51.880;5.632;2023-08-06T13:21:35;4.50;;;1.95;;
63536;SDS011;49686;51.880;5.632;2023-08-06T13:24:23;3.35;;;1.70;;
63536;SDS011;49686;51.880;5.632;2023-08-06T13:26:50;4.05;;;1.55;;
63536;SDS011;49686;51.880;5.632;2023-08-06T13:29:17;3.08;;;1.60;;
63536;SDS011;49686;51.880;5.632;2023-08-06T13:31:44;2.72;;;1.50;;
63536;SDS011;49686;51.880;5.632;2023-08-06T13:34:11;2.58;;;1.25;;
63536;SDS011;49686;51.880;5.632;2023-08-06T13:36:37;4.72;;;1.50;;
63536;SDS011;49686;51.880;5.632;2023-08-06T13:39:04;2.40;;;1.23;;
63536;SDS011;49686;51.880;5.632;2023-08-06T13:41:33;4.95;;;1.55;;
63536;SDS011;49686;51.880;5.632;2023-08-06T13:44:00;3.38;;;1.40;;
63536;SDS011;49686;51.880;5.632;2023-08-06T13:46:27;3.47;;;1.65;;
63536;SDS011;49686;51.880;5.632;2023-08-06T13:48:53;3.42;;;1.60;;
63536;SDS011;49686;51.880;5.632;2023-08-06T13:51:20;3.00;;;1.45;;
63536;SDS011;49686;51.880;5.632;2023-08-06T13:53:47;5.65;;;2.03;;
63536;SDS011;49686;51.880;5.632;2023-08-06T13:56:14;3.55;;;1.42;;
63536;SDS011;49686;51.880;5.632;2023-08-06T13:58:42;5.22;;;1.98;;
63536;SDS011;49686;51.880;5.632;2023-08-06T14:01:11;2.47;;;1.30;;
63536;SDS011;49686;51.880;5.632;2023-08-06T14:03:39;3.95;;;1.60;;
63536;SDS011;49686;51.880;5.632;2023-08-06T14:06:05;3.45;;;1.77;;
63536;SDS011;49686;51.880;5.632;2023-08-06T14:08:32;5.18;;;1.98;;
63536;SDS011;49686;51.880;5.632;2023-08-06T14:10:59;5.13;;;2.83;;
63536;SDS011;49686;51.880;5.632;2023-08-06T14:13:26;3.00;;;1.70;;
63536;SDS011;49686;51.880;5.632;2023-08-06T14:15:54;3.97;;;2.28;;
63536;SDS011;49686;51.880;5.632;2023-08-06T14:18:21;4.50;;;1.85;;
63536;SDS011;49686;51.880;5.632;2023-08-06T14:20:48;3.97;;;2.03;;
63536;SDS011;49686;51.880;5.632;2023-08-06T14:23:15;5.32;;;1.90;;
63536;SDS011;49686;51.880;5.632;2023-08-06T14:25:41;3.38;;;2.53;;
63536;SDS011;49686;51.880;5.632;2023-08-06T14:28:08;2.13;;;1.40;;
63536;SDS011;49686;51.880;5.632;2023-08-06T14:30:36;4.22;;;2.00;;
63536;SDS011;49686;51.880;5.632;2023-08-06T14:33:04;2.97;;;1.65;;
63536;SDS011;49686;51.880;5.632;2023-08-06T14:35:42;4.03;;;2.17;;
63536;SDS011;49686;51.880;5.632;2023-08-06T14:38:09;3.40;;;1.88;;
63536;SDS011;49686;51.880;5.632;2023-08-06T14:40:35;4.30;;;2.00;;
63536;SDS011;49686;51.880;5.632;2023-08-06T14:43:02;4.03;;;2.30;;
63536;SDS011;49686;51.880;5.632;2023-08-06T14:45:29;4.55;;;2.10;;